sensor_id;sensor_type;location;lat;lon;timestamp;P1;durP1;ratioP1;P2;durP2;ratioP2
22282;SDS011;11310;51.528;21.204;2022-12-11T00:01:12;36.95;;;13.00;;
22282;SDS011;11310;51.528;21.204;2022-12-11T00:03:46;36.92;;;12.88;;
22282;SDS011;11310;51.528;21.204;2022-12-11T00:06:16;31.60;;;12.25;;
22282;SDS011;11310;51.528;21.204;2022-12-11T00:08:46;35.35;;;14.18;;
22282;SDS011;11310;51.528;21.204;2022-12-11T00:11:19;32.97;;;14.23;;
22282;SDS011;11310;51.528;21.204;2022-12-11T00:13:48;32.92;;;12.57;;
22282;SDS011;11310;51.528;21.204;2022-12-11T00:16:18;36.47;;;12.27;;
22282;SDS011;11310;51.528;21.204;2022-12-11T00:18:54;31.60;;;12.38;;
22282;SDS011;11310;51.528;21.204;2022-12-11T00:21:22;31.50;;;12.30;;
22282;SDS011;11310;51.528;21.204;2022-12-11T00:23:51;32.80;;;13.10;;
22282;SDS011;11310;51.528;21.204;2022-12-11T00:26:20;31.23;;;12.65;;
22282;SDS011;11310;51.528;21.204;2022-12-11T00:28:51;31.85;;;12.23;;
22282;SDS011;11310;51.528;21.204;2022-12-11T00:31:21;35.33;;;13.57;;
22282;SDS011;11310;51.528;21.204;2022-12-11T00:33:51;34.65;;;12.32;;
22282;SDS011;11310;51.528;21.204;2022-12-11T00:36:22;34.40;;;12.40;;
22282;SDS011;11310;51.528;21.204;2022-12-11T00:38:53;33.75;;;13.00;;
22282;SDS011;11310;51.528;21.204;2022-12-11T00:41:22;35.55;;;12.88;;
22282;SDS011;11310;51.528;21.204;2022-12-11T00:43:51;32.80;;;13.55;;
22282;SDS011;11310;51.528;21.204;2022-12-11T00:46:20;33.10;;;13.13;;
22282;SDS011;11310;51.528;21.204;2022-12-11T00:48:49;39.38;;;14.43;;
22282;SDS011;11310;51.528;21.204;2022-12-11T00:51:18;37.92;;;14.73;;
22282;SDS011;11310;51.528;21.204;2022-12-11T00:53:48;35.85;;;13.15;;
22282;SDS011;11310;51.528;21.204;2022-12-11T00:56:18;37.38;;;13.18;;
22282;SDS011;11310;51.528;21.204;2022-12-11T00:58:47;36.95;;;13.20;;
22282;SDS011;11310;51.528;21.204;2022-12-11T01:01:17;32.90;;;13.73;;
22282;SDS011;11310;51.528;21.204;2022-12-11T01:03:48;37.03;;;12.57;;
22282;SDS011;11310;51.528;21.204;2022-12-11T01:06:18;34.67;;;13.77;;
22282;SDS011;11310;51.528;21.204;2022-12-11T01:08:49;37.33;;;14.03;;
22282;SDS011;11310;51.528;21.204;2022-12-11T01:11:41;35.65;;;13.68;;
22282;SDS011;11310;51.528;21.204;2022-12-11T01:14:10;34.13;;;12.80;;
22282;SDS011;11310;51.528;21.204;2022-12-11T01:16:39;40.47;;;13.90;;
22282;SDS011;11310;51.528;21.204;2022-12-11T01:19:07;42.13;;;13.52;;
22282;SDS011;11310;51.528;21.204;2022-12-11T01:21:36;35.55;;;12.95;;
22282;SDS011;11310;51.528;21.204;2022-12-11T01:24:07;31.80;;;12.75;;
22282;SDS011;11310;51.528;21.204;2022-12-11T01:26:36;31.27;;;13.43;;
22282;SDS011;11310;51.528;21.204;2022-12-11T01:29:04;39.60;;;13.85;;
22282;SDS011;11310;51.528;21.204;2022-12-11T01:31:34;35.35;;;13.57;;
22282;SDS011;11310;51.528;21.204;2022-12-11T01:34:03;34.75;;;12.85;;
22282;SDS011;11310;51.528;21.204;2022-12-11T01:36:32;30.95;;;13.07;;
22282;SDS011;11310;51.528;21.204;2022-12-11T01:39:00;36.05;;;13.05;;
22282;SDS011;11310;51.528;21.204;2022-12-11T01:41:31;31.55;;;12.75;;
22282;SDS011;11310;51.528;21.204;2022-12-11T01:44:00;35.30;;;12.55;;
22282;SDS011;11310;51.528;21.204;2022-12-11T01:46:32;36.35;;;13.63;;
22282;SDS011;11310;51.528;21.204;2022-12-11T01:49:02;29.38;;;11.88;;
22282;SDS011;11310;51.528;21.204;2022-12-11T01:51:35;32.60;;;12.57;;
22282;SDS011;11310;51.528;21.204;2022-12-11T01:54:08;30.70;;;11.88;;
22282;SDS011;11310;51.528;21.204;2022-12-11T01:56:42;33.22;;;12.80;;
22282;SDS011;11310;51.528;21.204;2022-12-11T01:59:14;31.95;;;12.50;;
22282;SDS011;11310;51.528;21.204;2022-12-11T02:01:47;27.90;;;11.35;;
22282;SDS011;11310;51.528;21.204;2022-12-11T02:04:18;31.35;;;12.07;;
22282;SDS011;11310;51.528;21.204;2022-12-11T02:06:49;27.17;;;10.50;;
22282;SDS011;11310;51.528;21.204;2022-12-11T02:09:19;31.00;;;11.45;;
22282;SDS011;11310;51.528;21.204;2022-12-11T02:11:54;25.88;;;10.63;;
22282;SDS011;11310;51.528;21.204;2022-12-11T02:14:31;25.83;;;10.70;;
22282;SDS011;11310;51.528;21.204;2022-12-11T02:17:08;24.75;;;10.65;;
22282;SDS011;11310;51.528;21.204;2022-12-11T02:19:44;23.02;;;10.07;;
22282;SDS011;11310;51.528;21.204;2022-12-11T02:22:26;20.55;;;9.30;;
22282;SDS011;11310;51.528;21.204;2022-12-11T02:25:08;26.17;;;10.82;;
22282;SDS011;11310;51.528;21.204;2022-12-11T02:27:45;24.38;;;9.68;;
22282;SDS011;11310;51.528;21.204;2022-12-11T02:30:23;22.65;;;9.43;;
22282;SDS011;11310;51.528;21.204;2022-12-11T02:32:53;24.00;;;9.85;;
22282;SDS011;11310;51.528;21.204;2022-12-11T02:35:25;22.98;;;9.82;;
22282;SDS011;11310;51.528;21.204;2022-12-11T02:38:00;23.63;;;9.60;;
22282;SDS011;11310;51.528;21.204;2022-12-11T02:40:34;23.05;;;9.75;;
22282;SDS011;11310;51.528;21.204;2022-12-11T02:43:06;21.45;;;9.73;;
22282;SDS011;11310;51.528;21.204;2022-12-11T02:45:41;20.02;;;8.98;;
22282;SDS011;11310;51.528;21.204;2022-12-11T02:48:13;18.42;;;8.98;;
22282;SDS011;11310;51.528;21.204;2022-12-11T02:50:44;20.70;;;9.20;;
22282;SDS011;11310;51.528;21.204;2022-12-11T02:53:16;20.95;;;9.48;;
22282;SDS011;11310;51.528;21.204;2022-12-11T02:55:50;19.83;;;8.38;;
22282;SDS011;11310;51.528;21.204;2022-12-11T02:58:24;23.88;;;9.65;;
22282;SDS011;11310;51.528;21.204;2022-12-11T03:00:58;19.58;;;8.63;;
22282;SDS011;11310;51.528;21.204;2022-12-11T03:03:27;20.38;;;8.45;;
22282;SDS011;11310;51.528;21.204;2022-12-11T03:05:57;19.10;;;8.63;;
22282;SDS011;11310;51.528;21.204;2022-12-11T03:08:26;23.45;;;9.05;;
22282;SDS011;11310;51.528;21.204;2022-12-11T03:10:55;21.40;;;9.30;;
22282;SDS011;11310;51.528;21.204;2022-12-11T03:13:24;22.75;;;8.57;;
22282;SDS011;11310;51.528;21.204;2022-12-11T03:16:00;27.73;;;8.98;;
22282;SDS011;11310;51.528;21.204;2022-12-11T03:18:38;18.80;;;8.13;;
22282;SDS011;11310;51.528;21.204;2022-12-11T03:21:11;20.92;;;8.02;;
22282;SDS011;11310;51.528;21.204;2022-12-11T03:23:47;21.75;;;9.38;;
22282;SDS011;11310;51.528;21.204;2022-12-11T03:26:19;19.63;;;8.45;;
22282;SDS011;11310;51.528;21.204;2022-12-11T03:28:50;19.38;;;9.00;;
22282;SDS011;11310;51.528;21.204;2022-12-11T03:31:28;18.77;;;8.68;;
22282;SDS011;11310;51.528;21.204;2022-12-11T03:34:02;19.23;;;8.30;;
22282;SDS011;11310;51.528;21.204;2022-12-11T03:36:39;17.42;;;7.82;;
22282;SDS011;11310;51.528;21.204;2022-12-11T03:39:09;18.08;;;8.10;;
22282;SDS011;11310;51.528;21.204;2022-12-11T03:41:43;16.65;;;7.47;;
22282;SDS011;11310;51.528;21.204;2022-12-11T03:44:14;18.20;;;7.90;;
22282;SDS011;11310;51.528;21.204;2022-12-11T03:46:45;16.73;;;8.02;;
22282;SDS011;11310;51.528;21.204;2022-12-11T03:49:18;18.45;;;7.95;;
22282;SDS011;11310;51.528;21.204;2022-12-11T03:51:52;16.52;;;7.95;;
22282;SDS011;11310;51.528;21.204;2022-12-11T03:54:23;17.85;;;8.00;;
22282;SDS011;11310;51.528;21.204;2022-12-11T03:56:54;17.55;;;7.97;;
22282;SDS011;11310;51.528;21.204;2022-12-11T03:59:25;20.83;;;8.35;;
22282;SDS011;11310;51.528;21.204;2022-12-11T04:01:55;19.48;;;9.60;;
22282;SDS011;11310;51.528;21.204;2022-12-11T04:04:24;18.45;;;8.27;;
22282;SDS011;11310;51.528;21.204;2022-12-11T04:06:52;18.10;;;7.95;;
22282;SDS011;11310;51.528;21.204;2022-12-11T04:09:21;18.67;;;7.78;;
22282;SDS011;11310;51.528;21.204;2022-12-11T04:11:50;15.65;;;7.32;;
22282;SDS011;11310;51.528;21.204;2022-12-11T04:14:18;18.02;;;8.13;;
22282;SDS011;11310;51.528;21.204;2022-12-11T04:17:06;17.58;;;7.47;;
22282;SDS011;11310;51.528;21.204;2022-12-11T04:19:35;16.38;;;6.82;;
22282;SDS011;11310;51.528;21.204;2022-12-11T04:22:21;18.52;;;8.88;;
22282;SDS011;11310;51.528;21.204;2022-12-11T04:25:08;16.38;;;7.82;;
22282;SDS011;11310;51.528;21.204;2022-12-11T04:27:37;19.10;;;7.65;;
22282;SDS011;11310;51.528;21.204;2022-12-11T04:30:20;12.55;;;6.03;;
22282;SDS011;11310;51.528;21.204;2022-12-11T04:32:59;18.65;;;8.80;;
22282;SDS011;11310;51.528;21.204;2022-12-11T04:35:28;18.63;;;8.13;;
22282;SDS011;11310;51.528;21.204;2022-12-11T04:37:57;17.75;;;7.70;;
22282;SDS011;11310;51.528;21.204;2022-12-11T04:40:29;19.10;;;8.68;;
22282;SDS011;11310;51.528;21.204;2022-12-11T04:42:58;17.38;;;7.88;;
22282;SDS011;11310;51.528;21.204;2022-12-11T04:45:26;17.77;;;8.38;;
22282;SDS011;11310;51.528;21.204;2022-12-11T04:47:55;17.90;;;7.72;;
22282;SDS011;11310;51.528;21.204;2022-12-11T04:50:27;16.35;;;7.53;;
22282;SDS011;11310;51.528;21.204;2022-12-11T04:52:55;18.77;;;7.88;;
22282;SDS011;11310;51.528;21.204;2022-12-11T04:55:24;19.33;;;7.53;;
22282;SDS011;11310;51.528;21.204;2022-12-11T04:57:53;19.88;;;8.07;;
22282;SDS011;11310;51.528;21.204;2022-12-11T05:00:22;20.00;;;8.32;;
22282;SDS011;11310;51.528;21.204;2022-12-11T05:02:51;17.73;;;8.05;;
22282;SDS011;11310;51.528;21.204;2022-12-11T05:05:20;16.75;;;7.38;;
22282;SDS011;11310;51.528;21.204;2022-12-11T05:07:50;18.17;;;7.63;;
22282;SDS011;11310;51.528;21.204;2022-12-11T05:10:19;16.58;;;7.22;;
22282;SDS011;11310;51.528;21.204;2022-12-11T05:12:47;15.43;;;6.72;;
22282;SDS011;11310;51.528;21.204;2022-12-11T05:15:16;17.70;;;7.97;;
22282;SDS011;11310;51.528;21.204;2022-12-11T05:17:45;16.60;;;7.53;;
22282;SDS011;11310;51.528;21.204;2022-12-11T05:20:14;15.98;;;7.05;;
22282;SDS011;11310;51.528;21.204;2022-12-11T05:22:43;17.05;;;7.45;;
22282;SDS011;11310;51.528;21.204;2022-12-11T05:25:13;14.93;;;7.03;;
22282;SDS011;11310;51.528;21.204;2022-12-11T05:27:44;16.10;;;6.90;;
22282;SDS011;11310;51.528;21.204;2022-12-11T05:30:13;17.00;;;6.90;;
22282;SDS011;11310;51.528;21.204;2022-12-11T05:32:41;15.57;;;6.63;;
22282;SDS011;11310;51.528;21.204;2022-12-11T05:35:10;14.68;;;6.80;;
22282;SDS011;11310;51.528;21.204;2022-12-11T05:37:40;16.02;;;6.88;;
22282;SDS011;11310;51.528;21.204;2022-12-11T05:40:09;18.48;;;7.20;;
22282;SDS011;11310;51.528;21.204;2022-12-11T05:42:40;15.27;;;7.05;;
22282;SDS011;11310;51.528;21.204;2022-12-11T05:45:10;19.10;;;6.50;;
22282;SDS011;11310;51.528;21.204;2022-12-11T05:47:39;19.20;;;7.63;;
22282;SDS011;11310;51.528;21.204;2022-12-11T05:50:08;17.40;;;7.32;;
22282;SDS011;11310;51.528;21.204;2022-12-11T05:52:37;17.15;;;7.05;;
22282;SDS011;11310;51.528;21.204;2022-12-11T05:55:06;17.25;;;7.43;;
22282;SDS011;11310;51.528;21.204;2022-12-11T05:57:36;19.92;;;7.63;;
22282;SDS011;11310;51.528;21.204;2022-12-11T06:00:06;16.55;;;6.93;;
22282;SDS011;11310;51.528;21.204;2022-12-11T06:02:36;15.90;;;7.53;;
22282;SDS011;11310;51.528;21.204;2022-12-11T06:05:05;17.90;;;7.45;;
22282;SDS011;11310;51.528;21.204;2022-12-11T06:07:35;21.00;;;6.80;;
22282;SDS011;11310;51.528;21.204;2022-12-11T06:10:04;16.65;;;7.68;;
22282;SDS011;11310;51.528;21.204;2022-12-11T06:12:34;16.83;;;7.72;;
22282;SDS011;11310;51.528;21.204;2022-12-11T06:15:07;17.60;;;6.85;;
22282;SDS011;11310;51.528;21.204;2022-12-11T06:17:36;18.58;;;7.60;;
22282;SDS011;11310;51.528;21.204;2022-12-11T06:20:05;18.85;;;7.70;;
22282;SDS011;11310;51.528;21.204;2022-12-11T06:22:35;21.48;;;7.18;;
22282;SDS011;11310;51.528;21.204;2022-12-11T06:25:04;21.13;;;7.90;;
22282;SDS011;11310;51.528;21.204;2022-12-11T06:27:33;20.85;;;8.25;;
22282;SDS011;11310;51.528;21.204;2022-12-11T06:30:02;18.02;;;7.03;;
22282;SDS011;11310;51.528;21.204;2022-12-11T06:32:33;21.10;;;8.15;;
22282;SDS011;11310;51.528;21.204;2022-12-11T06:35:02;19.70;;;7.93;;
22282;SDS011;11310;51.528;21.204;2022-12-11T06:37:31;17.42;;;6.82;;
22282;SDS011;11310;51.528;21.204;2022-12-11T06:40:00;19.77;;;7.57;;
22282;SDS011;11310;51.528;21.204;2022-12-11T06:42:30;19.00;;;7.43;;
22282;SDS011;11310;51.528;21.204;2022-12-11T06:44:58;15.98;;;6.80;;
22282;SDS011;11310;51.528;21.204;2022-12-11T06:47:28;19.80;;;8.40;;
22282;SDS011;11310;51.528;21.204;2022-12-11T06:49:59;17.77;;;7.68;;
22282;SDS011;11310;51.528;21.204;2022-12-11T06:52:28;18.00;;;7.40;;
22282;SDS011;11310;51.528;21.204;2022-12-11T06:54:58;19.70;;;7.95;;
22282;SDS011;11310;51.528;21.204;2022-12-11T06:57:27;22.40;;;8.48;;
22282;SDS011;11310;51.528;21.204;2022-12-11T06:59:55;20.13;;;8.27;;
22282;SDS011;11310;51.528;21.204;2022-12-11T07:02:24;19.05;;;8.45;;
22282;SDS011;11310;51.528;21.204;2022-12-11T07:04:53;25.35;;;8.75;;
22282;SDS011;11310;51.528;21.204;2022-12-11T07:07:23;21.38;;;8.40;;
22282;SDS011;11310;51.528;21.204;2022-12-11T07:09:52;17.77;;;8.18;;
22282;SDS011;11310;51.528;21.204;2022-12-11T07:12:20;21.35;;;8.15;;
22282;SDS011;11310;51.528;21.204;2022-12-11T07:14:49;21.77;;;7.95;;
22282;SDS011;11310;51.528;21.204;2022-12-11T07:17:18;20.58;;;8.60;;
22282;SDS011;11310;51.528;21.204;2022-12-11T07:19:47;20.27;;;8.27;;
22282;SDS011;11310;51.528;21.204;2022-12-11T07:22:18;25.55;;;9.10;;
22282;SDS011;11310;51.528;21.204;2022-12-11T07:24:48;18.55;;;7.75;;
22282;SDS011;11310;51.528;21.204;2022-12-11T07:27:16;20.95;;;8.40;;
22282;SDS011;11310;51.528;21.204;2022-12-11T07:29:45;20.27;;;8.38;;
22282;SDS011;11310;51.528;21.204;2022-12-11T07:32:14;23.92;;;9.20;;
22282;SDS011;11310;51.528;21.204;2022-12-11T07:34:43;24.63;;;9.05;;
22282;SDS011;11310;51.528;21.204;2022-12-11T07:37:17;22.90;;;9.38;;
22282;SDS011;11310;51.528;21.204;2022-12-11T07:39:48;20.90;;;8.18;;
22282;SDS011;11310;51.528;21.204;2022-12-11T07:42:17;17.60;;;8.02;;
22282;SDS011;11310;51.528;21.204;2022-12-11T07:44:45;20.27;;;8.43;;
22282;SDS011;11310;51.528;21.204;2022-12-11T07:47:14;22.77;;;9.07;;
22282;SDS011;11310;51.528;21.204;2022-12-11T07:49:43;22.17;;;8.43;;
22282;SDS011;11310;51.528;21.204;2022-12-11T07:52:12;21.52;;;7.78;;
22282;SDS011;11310;51.528;21.204;2022-12-11T07:54:41;18.60;;;7.53;;
22282;SDS011;11310;51.528;21.204;2022-12-11T07:57:11;19.75;;;8.23;;
22282;SDS011;11310;51.528;21.204;2022-12-11T07:59:40;21.08;;;8.07;;
22282;SDS011;11310;51.528;21.204;2022-12-11T08:02:09;21.10;;;8.38;;
22282;SDS011;11310;51.528;21.204;2022-12-11T08:04:38;17.95;;;7.90;;
22282;SDS011;11310;51.528;21.204;2022-12-11T08:07:07;19.20;;;8.10;;
22282;SDS011;11310;51.528;21.204;2022-12-11T08:09:36;17.60;;;6.85;;
22282;SDS011;11310;51.528;21.204;2022-12-11T08:12:05;19.60;;;7.85;;
22282;SDS011;11310;51.528;21.204;2022-12-11T08:14:35;20.58;;;8.25;;
22282;SDS011;11310;51.528;21.204;2022-12-11T08:17:04;20.90;;;8.15;;
22282;SDS011;11310;51.528;21.204;2022-12-11T08:19:32;20.23;;;7.03;;
22282;SDS011;11310;51.528;21.204;2022-12-11T08:22:01;20.83;;;8.07;;
22282;SDS011;11310;51.528;21.204;2022-12-11T08:24:31;19.67;;;8.10;;
22282;SDS011;11310;51.528;21.204;2022-12-11T08:26:59;18.90;;;7.50;;
22282;SDS011;11310;51.528;21.204;2022-12-11T08:29:29;16.20;;;7.00;;
22282;SDS011;11310;51.528;21.204;2022-12-11T08:31:59;19.17;;;7.47;;
22282;SDS011;11310;51.528;21.204;2022-12-11T08:34:33;17.20;;;7.07;;
22282;SDS011;11310;51.528;21.204;2022-12-11T08:37:01;14.38;;;6.72;;
22282;SDS011;11310;51.528;21.204;2022-12-11T08:39:30;16.50;;;7.13;;
22282;SDS011;11310;51.528;21.204;2022-12-11T08:41:59;17.95;;;6.68;;
22282;SDS011;11310;51.528;21.204;2022-12-11T08:44:27;15.52;;;6.63;;
22282;SDS011;11310;51.528;21.204;2022-12-11T08:46:56;17.05;;;7.25;;
22282;SDS011;11310;51.528;21.204;2022-12-11T08:49:27;15.90;;;7.07;;
22282;SDS011;11310;51.528;21.204;2022-12-11T08:52:01;16.75;;;7.05;;
22282;SDS011;11310;51.528;21.204;2022-12-11T08:54:30;15.73;;;7.00;;
22282;SDS011;11310;51.528;21.204;2022-12-11T08:56:59;18.00;;;7.18;;
22282;SDS011;11310;51.528;21.204;2022-12-11T08:59:27;15.18;;;6.20;;
22282;SDS011;11310;51.528;21.204;2022-12-11T09:01:58;19.52;;;7.40;;
22282;SDS011;11310;51.528;21.204;2022-12-11T09:04:27;14.43;;;6.15;;
22282;SDS011;11310;51.528;21.204;2022-12-11T09:06:56;16.08;;;7.00;;
22282;SDS011;11310;51.528;21.204;2022-12-11T09:09:24;18.80;;;6.88;;
22282;SDS011;11310;51.528;21.204;2022-12-11T09:11:53;14.63;;;6.72;;
22282;SDS011;11310;51.528;21.204;2022-12-11T09:14:22;16.77;;;7.13;;
22282;SDS011;11310;51.528;21.204;2022-12-11T09:16:51;14.23;;;6.25;;
22282;SDS011;11310;51.528;21.204;2022-12-11T09:19:21;15.32;;;7.22;;
22282;SDS011;11310;51.528;21.204;2022-12-11T09:21:57;15.45;;;6.75;;
22282;SDS011;11310;51.528;21.204;2022-12-11T09:24:26;16.25;;;5.97;;
22282;SDS011;11310;51.528;21.204;2022-12-11T09:26:55;18.83;;;7.63;;
22282;SDS011;11310;51.528;21.204;2022-12-11T09:29:23;16.23;;;6.88;;
22282;SDS011;11310;51.528;21.204;2022-12-11T09:31:52;15.13;;;6.25;;
22282;SDS011;11310;51.528;21.204;2022-12-11T09:34:23;20.67;;;7.43;;
22282;SDS011;11310;51.528;21.204;2022-12-11T09:36:55;13.80;;;6.15;;
22282;SDS011;11310;51.528;21.204;2022-12-11T09:39:24;14.13;;;6.53;;
22282;SDS011;11310;51.528;21.204;2022-12-11T09:41:54;14.77;;;6.07;;
22282;SDS011;11310;51.528;21.204;2022-12-11T09:44:33;14.52;;;6.47;;
22282;SDS011;11310;51.528;21.204;2022-12-11T09:47:15;13.10;;;5.57;;
22282;SDS011;11310;51.528;21.204;2022-12-11T09:49:50;13.70;;;5.78;;
22282;SDS011;11310;51.528;21.204;2022-12-11T09:52:27;12.30;;;6.13;;
22282;SDS011;11310;51.528;21.204;2022-12-11T09:55:02;15.07;;;6.35;;
22282;SDS011;11310;51.528;21.204;2022-12-11T09:57:43;14.82;;;6.15;;
22282;SDS011;11310;51.528;21.204;2022-12-11T10:00:23;15.23;;;6.13;;
22282;SDS011;11310;51.528;21.204;2022-12-11T10:03:00;11.70;;;5.82;;
22282;SDS011;11310;51.528;21.204;2022-12-11T10:05:41;15.38;;;5.50;;
22282;SDS011;11310;51.528;21.204;2022-12-11T10:08:19;14.40;;;5.88;;
22282;SDS011;11310;51.528;21.204;2022-12-11T10:11:00;11.68;;;5.22;;
22282;SDS011;11310;51.528;21.204;2022-12-11T10:13:42;11.32;;;5.22;;
22282;SDS011;11310;51.528;21.204;2022-12-11T10:16:23;11.07;;;5.32;;
22282;SDS011;11310;51.528;21.204;2022-12-11T10:19:02;15.02;;;5.93;;
22282;SDS011;11310;51.528;21.204;2022-12-11T10:21:35;14.38;;;5.43;;
22282;SDS011;11310;51.528;21.204;2022-12-11T10:24:10;14.55;;;6.57;;
22282;SDS011;11310;51.528;21.204;2022-12-11T10:27:11;16.23;;;5.90;;
22282;SDS011;11310;51.528;21.204;2022-12-11T10:29:42;18.63;;;6.35;;
22282;SDS011;11310;51.528;21.204;2022-12-11T10:32:14;13.32;;;5.63;;
22282;SDS011;11310;51.528;21.204;2022-12-11T10:34:50;14.55;;;5.38;;
22282;SDS011;11310;51.528;21.204;2022-12-11T10:37:25;14.20;;;5.75;;
22282;SDS011;11310;51.528;21.204;2022-12-11T10:39:54;17.42;;;6.18;;
22282;SDS011;11310;51.528;21.204;2022-12-11T10:42:22;17.23;;;6.50;;
22282;SDS011;11310;51.528;21.204;2022-12-11T10:44:54;16.83;;;7.22;;
22282;SDS011;11310;51.528;21.204;2022-12-11T10:47:25;14.00;;;6.72;;
22282;SDS011;11310;51.528;21.204;2022-12-11T10:49:55;14.50;;;6.43;;
22282;SDS011;11310;51.528;21.204;2022-12-11T10:52:28;14.90;;;5.60;;
22282;SDS011;11310;51.528;21.204;2022-12-11T10:55:01;15.10;;;6.93;;
22282;SDS011;11310;51.528;21.204;2022-12-11T10:57:32;14.23;;;6.95;;
22282;SDS011;11310;51.528;21.204;2022-12-11T11:00:03;13.65;;;5.82;;
22282;SDS011;11310;51.528;21.204;2022-12-11T11:02:35;14.30;;;6.38;;
22282;SDS011;11310;51.528;21.204;2022-12-11T11:05:10;17.30;;;6.88;;
22282;SDS011;11310;51.528;21.204;2022-12-11T11:07:43;14.85;;;6.18;;
22282;SDS011;11310;51.528;21.204;2022-12-11T11:10:14;15.60;;;6.47;;
22282;SDS011;11310;51.528;21.204;2022-12-11T11:12:45;13.85;;;6.22;;
22282;SDS011;11310;51.528;21.204;2022-12-11T11:15:17;13.88;;;6.55;;
22282;SDS011;11310;51.528;21.204;2022-12-11T11:17:49;13.48;;;5.65;;
22282;SDS011;11310;51.528;21.204;2022-12-11T11:20:22;14.93;;;6.63;;
22282;SDS011;11310;51.528;21.204;2022-12-11T11:22:56;16.70;;;6.22;;
22282;SDS011;11310;51.528;21.204;2022-12-11T11:25:28;15.10;;;6.88;;
22282;SDS011;11310;51.528;21.204;2022-12-11T11:27:59;15.48;;;6.00;;
22282;SDS011;11310;51.528;21.204;2022-12-11T11:30:30;13.82;;;6.15;;
22282;SDS011;11310;51.528;21.204;2022-12-11T11:33:02;16.73;;;6.32;;
22282;SDS011;11310;51.528;21.204;2022-12-11T11:35:33;16.67;;;6.80;;
22282;SDS011;11310;51.528;21.204;2022-12-11T11:38:04;16.67;;;6.88;;
22282;SDS011;11310;51.528;21.204;2022-12-11T11:40:44;16.42;;;7.32;;
22282;SDS011;11310;51.528;21.204;2022-12-11T11:43:20;15.27;;;6.80;;
22282;SDS011;11310;51.528;21.204;2022-12-11T11:45:59;16.25;;;6.72;;
22282;SDS011;11310;51.528;21.204;2022-12-11T11:48:35;15.25;;;6.72;;
22282;SDS011;11310;51.528;21.204;2022-12-11T11:51:12;20.40;;;7.03;;
22282;SDS011;11310;51.528;21.204;2022-12-11T11:53:47;16.70;;;6.82;;
22282;SDS011;11310;51.528;21.204;2022-12-11T11:56:20;17.25;;;8.10;;
22282;SDS011;11310;51.528;21.204;2022-12-11T11:58:54;17.95;;;7.20;;
22282;SDS011;11310;51.528;21.204;2022-12-11T12:01:28;15.75;;;7.20;;
22282;SDS011;11310;51.528;21.204;2022-12-11T12:03:57;15.65;;;7.43;;
22282;SDS011;11310;51.528;21.204;2022-12-11T12:06:40;16.00;;;6.93;;
22282;SDS011;11310;51.528;21.204;2022-12-11T12:09:23;12.75;;;6.13;;
22282;SDS011;11310;51.528;21.204;2022-12-11T12:12:04;14.25;;;6.20;;
22282;SDS011;11310;51.528;21.204;2022-12-11T12:14:42;14.07;;;6.50;;
22282;SDS011;11310;51.528;21.204;2022-12-11T12:17:23;17.42;;;6.95;;
22282;SDS011;11310;51.528;21.204;2022-12-11T12:20:03;17.73;;;6.72;;
22282;SDS011;11310;51.528;21.204;2022-12-11T12:22:51;14.85;;;6.28;;
22282;SDS011;11310;51.528;21.204;2022-12-11T12:25:30;17.85;;;6.97;;
22282;SDS011;11310;51.528;21.204;2022-12-11T12:28:09;19.05;;;6.65;;
22282;SDS011;11310;51.528;21.204;2022-12-11T12:30:53;15.05;;;6.30;;
22282;SDS011;11310;51.528;21.204;2022-12-11T12:33:35;14.50;;;6.07;;
22282;SDS011;11310;51.528;21.204;2022-12-11T12:36:16;14.80;;;6.78;;
22282;SDS011;11310;51.528;21.204;2022-12-11T12:38:51;19.02;;;6.97;;
22282;SDS011;11310;51.528;21.204;2022-12-11T12:41:26;15.05;;;6.57;;
22282;SDS011;11310;51.528;21.204;2022-12-11T12:44:09;14.73;;;6.35;;
22282;SDS011;11310;51.528;21.204;2022-12-11T12:46:48;15.30;;;6.80;;
22282;SDS011;11310;51.528;21.204;2022-12-11T12:49:29;18.08;;;6.50;;
22282;SDS011;11310;51.528;21.204;2022-12-11T12:52:02;18.15;;;6.90;;
22282;SDS011;11310;51.528;21.204;2022-12-11T12:54:34;14.95;;;7.25;;
22282;SDS011;11310;51.528;21.204;2022-12-11T12:57:06;15.90;;;6.18;;
22282;SDS011;11310;51.528;21.204;2022-12-11T12:59:36;17.80;;;6.80;;
22282;SDS011;11310;51.528;21.204;2022-12-11T13:02:11;17.35;;;6.85;;
22282;SDS011;11310;51.528;21.204;2022-12-11T13:04:44;15.85;;;6.78;;
22282;SDS011;11310;51.528;21.204;2022-12-11T13:07:25;15.75;;;6.78;;
22282;SDS011;11310;51.528;21.204;2022-12-11T13:10:00;15.07;;;6.65;;
22282;SDS011;11310;51.528;21.204;2022-12-11T13:12:39;16.45;;;7.57;;
22282;SDS011;11310;51.528;21.204;2022-12-11T13:17:58;14.07;;;6.45;;
22282;SDS011;11310;51.528;21.204;2022-12-11T13:20:30;14.68;;;6.13;;
22282;SDS011;11310;51.528;21.204;2022-12-11T13:23:07;14.85;;;6.60;;
22282;SDS011;11310;51.528;21.204;2022-12-11T13:25:53;15.07;;;6.15;;
22282;SDS011;11310;51.528;21.204;2022-12-11T13:28:30;14.80;;;6.75;;
22282;SDS011;11310;51.528;21.204;2022-12-11T13:31:05;18.88;;;7.45;;
22282;SDS011;11310;51.528;21.204;2022-12-11T13:33:55;15.85;;;7.00;;
22282;SDS011;11310;51.528;21.204;2022-12-11T13:36:27;14.82;;;6.50;;
22282;SDS011;11310;51.528;21.204;2022-12-11T13:39:00;17.35;;;7.28;;
22282;SDS011;11310;51.528;21.204;2022-12-11T13:41:33;15.70;;;6.85;;
22282;SDS011;11310;51.528;21.204;2022-12-11T13:44:05;17.08;;;6.57;;
22282;SDS011;11310;51.528;21.204;2022-12-11T13:46:35;15.90;;;6.45;;
22282;SDS011;11310;51.528;21.204;2022-12-11T13:49:06;18.50;;;7.53;;
22282;SDS011;11310;51.528;21.204;2022-12-11T13:51:52;15.95;;;7.00;;
22282;SDS011;11310;51.528;21.204;2022-12-11T13:54:22;17.10;;;7.13;;
22282;SDS011;11310;51.528;21.204;2022-12-11T13:56:55;16.92;;;6.20;;
22282;SDS011;11310;51.528;21.204;2022-12-11T13:59:31;15.82;;;6.70;;
22282;SDS011;11310;51.528;21.204;2022-12-11T14:02:03;15.27;;;7.40;;
22282;SDS011;11310;51.528;21.204;2022-12-11T14:04:40;17.00;;;7.15;;
22282;SDS011;11310;51.528;21.204;2022-12-11T14:07:09;15.77;;;7.38;;
22282;SDS011;11310;51.528;21.204;2022-12-11T14:09:41;17.33;;;7.55;;
22282;SDS011;11310;51.528;21.204;2022-12-11T14:12:14;21.50;;;7.82;;
22282;SDS011;11310;51.528;21.204;2022-12-11T14:14:50;16.45;;;7.03;;
22282;SDS011;11310;51.528;21.204;2022-12-11T14:17:23;17.85;;;8.00;;
22282;SDS011;11310;51.528;21.204;2022-12-11T14:19:55;20.13;;;7.55;;
22282;SDS011;11310;51.528;21.204;2022-12-11T14:22:26;19.27;;;7.53;;
22282;SDS011;11310;51.528;21.204;2022-12-11T14:24:57;17.63;;;7.57;;
22282;SDS011;11310;51.528;21.204;2022-12-11T14:27:31;15.45;;;6.80;;
22282;SDS011;11310;51.528;21.204;2022-12-11T14:30:10;16.42;;;6.88;;
22282;SDS011;11310;51.528;21.204;2022-12-11T14:32:41;17.63;;;7.45;;
22282;SDS011;11310;51.528;21.204;2022-12-11T14:35:16;18.35;;;7.30;;
22282;SDS011;11310;51.528;21.204;2022-12-11T14:37:53;17.88;;;6.88;;
22282;SDS011;11310;51.528;21.204;2022-12-11T14:42:56;17.60;;;6.93;;
22282;SDS011;11310;51.528;21.204;2022-12-11T14:45:32;17.08;;;7.10;;
22282;SDS011;11310;51.528;21.204;2022-12-11T14:48:06;19.63;;;8.60;;
22282;SDS011;11310;51.528;21.204;2022-12-11T14:50:40;17.58;;;7.90;;
22282;SDS011;11310;51.528;21.204;2022-12-11T14:53:14;15.05;;;6.80;;